sensor_id;sensor_type;location;lat;lon;timestamp;P1;durP1;ratioP1;P2;durP2;ratioP2
85204;SDS011;75582;47.444;21.396;2024-02-21T00:01:22;33.90;;;18.10;;
85204;SDS011;75582;47.444;21.396;2024-02-21T00:02:47;38.80;;;19.02;;
85204;SDS011;75582;47.444;21.396;2024-02-21T00:04:13;32.80;;;18.25;;
85204;SDS011;75582;47.444;21.396;2024-02-21T00:05:39;33.53;;;18.80;;
85204;SDS011;75582;47.444;21.396;2024-02-21T00:07:05;32.03;;;18.00;;
85204;SDS011;75582;47.444;21.396;2024-02-21T00:08:31;35.85;;;19.33;;
85204;SDS011;75582;47.444;21.396;2024-02-21T00:09:57;36.75;;;18.85;;
85204;SDS011;75582;47.444;21.396;2024-02-21T00:11:23;31.65;;;18.27;;
85204;SDS011;75582;47.444;21.396;2024-02-21T00:12:49;32.03;;;17.92;;
85204;SDS011;75582;47.444;21.396;2024-02-21T00:14:22;32.08;;;17.98;;
85204;SDS011;75582;47.444;21.396;2024-02-21T00:15:48;35.88;;;19.27;;
85204;SDS011;75582;47.444;21.396;2024-02-21T00:17:14;32.10;;;17.73;;
85204;SDS011;75582;47.444;21.396;2024-02-21T00:18:40;36.38;;;19.38;;
85204;SDS011;75582;47.444;21.396;2024-02-21T00:20:06;34.67;;;18.80;;
85204;SDS011;75582;47.444;21.396;2024-02-21T00:21:33;34.25;;;18.27;;
85204;SDS011;75582;47.444;21.396;2024-02-21T00:22:59;34.15;;;18.13;;
85204;SDS011;75582;47.444;21.396;2024-02-21T00:24:25;31.95;;;19.05;;
85204;SDS011;75582;47.444;21.396;2024-02-21T00:25:51;33.28;;;18.65;;
85204;SDS011;75582;47.444;21.396;2024-02-21T00:27:17;29.65;;;16.80;;
85204;SDS011;75582;47.444;21.396;2024-02-21T00:28:43;32.10;;;18.67;;
85204;SDS011;75582;47.444;21.396;2024-02-21T00:30:09;30.58;;;17.33;;
85204;SDS011;75582;47.444;21.396;2024-02-21T00:31:35;30.80;;;17.45;;
85204;SDS011;75582;47.444;21.396;2024-02-21T00:33:02;34.38;;;17.13;;
85204;SDS011;75582;47.444;21.396;2024-02-21T00:34:28;35.87;;;18.10;;
85204;SDS011;75582;47.444;21.396;2024-02-21T00:35:54;31.08;;;17.35;;
85204;SDS011;75582;47.444;21.396;2024-02-21T00:37:20;31.65;;;17.02;;
85204;SDS011;75582;47.444;21.396;2024-02-21T00:38:46;29.58;;;16.95;;
85204;SDS011;75582;47.444;21.396;2024-02-21T00:40:12;30.02;;;17.00;;
85204;SDS011;75582;47.444;21.396;2024-02-21T00:41:38;30.38;;;16.83;;
85204;SDS011;75582;47.444;21.396;2024-02-21T00:43:04;29.88;;;16.80;;
85204;SDS011;75582;47.444;21.396;2024-02-21T00:44:30;30.10;;;16.58;;
85204;SDS011;75582;47.444;21.396;2024-02-21T00:45:56;31.10;;;17.23;;
85204;SDS011;75582;47.444;21.396;2024-02-21T00:47:22;30.67;;;16.15;;
85204;SDS011;75582;47.444;21.396;2024-02-21T00:48:48;28.77;;;16.03;;
85204;SDS011;75582;47.444;21.396;2024-02-21T00:50:15;31.75;;;16.77;;
85204;SDS011;75582;47.444;21.396;2024-02-21T00:51:41;31.27;;;16.50;;
85204;SDS011;75582;47.444;21.396;2024-02-21T00:53:07;28.25;;;16.45;;
85204;SDS011;75582;47.444;21.396;2024-02-21T00:54:33;29.05;;;16.50;;
85204;SDS011;75582;47.444;21.396;2024-02-21T00:55:59;28.30;;;15.77;;
85204;SDS011;75582;47.444;21.396;2024-02-21T00:57:25;30.23;;;16.25;;
85204;SDS011;75582;47.444;21.396;2024-02-21T00:58:52;27.85;;;15.30;;
85204;SDS011;75582;47.444;21.396;2024-02-21T01:00:18;27.48;;;15.60;;
85204;SDS011;75582;47.444;21.396;2024-02-21T01:01:45;28.08;;;15.80;;
85204;SDS011;75582;47.444;21.396;2024-02-21T01:03:11;32.00;;;16.57;;
85204;SDS011;75582;47.444;21.396;2024-02-21T01:04:37;28.92;;;15.35;;
85204;SDS011;75582;47.444;21.396;2024-02-21T01:06:03;31.65;;;16.65;;
85204;SDS011;75582;47.444;21.396;2024-02-21T01:07:36;27.85;;;15.48;;
85204;SDS011;75582;47.444;21.396;2024-02-21T01:09:09;27.65;;;15.68;;
85204;SDS011;75582;47.444;21.396;2024-02-21T01:10:36;24.88;;;14.52;;
85204;SDS011;75582;47.444;21.396;2024-02-21T01:12:15;28.00;;;15.00;;
85204;SDS011;75582;47.444;21.396;2024-02-21T01:13:41;28.13;;;15.65;;
85204;SDS011;75582;47.444;21.396;2024-02-21T01:15:07;31.90;;;16.88;;
85204;SDS011;75582;47.444;21.396;2024-02-21T01:16:33;30.20;;;16.05;;
85204;SDS011;75582;47.444;21.396;2024-02-21T01:18:00;27.67;;;15.33;;
85204;SDS011;75582;47.444;21.396;2024-02-21T01:19:26;27.02;;;15.38;;
85204;SDS011;75582;47.444;21.396;2024-02-21T01:20:52;29.10;;;14.82;;
85204;SDS011;75582;47.444;21.396;2024-02-21T01:22:18;27.75;;;15.07;;
85204;SDS011;75582;47.444;21.396;2024-02-21T01:23:44;29.33;;;15.43;;
85204;SDS011;75582;47.444;21.396;2024-02-21T01:25:10;25.63;;;14.27;;
85204;SDS011;75582;47.444;21.396;2024-02-21T01:26:36;28.10;;;14.85;;
85204;SDS011;75582;47.444;21.396;2024-02-21T01:28:02;26.50;;;15.13;;
85204;SDS011;75582;47.444;21.396;2024-02-21T01:29:28;30.05;;;15.32;;
85204;SDS011;75582;47.444;21.396;2024-02-21T01:30:54;28.88;;;14.27;;
85204;SDS011;75582;47.444;21.396;2024-02-21T01:32:20;26.90;;;15.10;;
85204;SDS011;75582;47.444;21.396;2024-02-21T01:33:47;29.33;;;15.18;;
85204;SDS011;75582;47.444;21.396;2024-02-21T01:35:13;26.17;;;14.55;;
85204;SDS011;75582;47.444;21.396;2024-02-21T01:36:39;29.38;;;15.45;;
85204;SDS011;75582;47.444;21.396;2024-02-21T01:38:05;28.40;;;15.77;;
85204;SDS011;75582;47.444;21.396;2024-02-21T01:39:31;25.92;;;14.57;;
85204;SDS011;75582;47.444;21.396;2024-02-21T01:40:57;25.92;;;15.15;;
85204;SDS011;75582;47.444;21.396;2024-02-21T01:42:23;25.77;;;14.43;;
85204;SDS011;75582;47.444;21.396;2024-02-21T01:43:49;28.23;;;14.85;;
85204;SDS011;75582;47.444;21.396;2024-02-21T01:45:14;25.63;;;14.10;;
85204;SDS011;75582;47.444;21.396;2024-02-21T01:46:41;27.13;;;15.70;;
85204;SDS011;75582;47.444;21.396;2024-02-21T01:48:07;27.50;;;14.90;;
85204;SDS011;75582;47.444;21.396;2024-02-21T01:49:33;29.45;;;14.95;;
85204;SDS011;75582;47.444;21.396;2024-02-21T01:50:59;25.10;;;14.98;;
85204;SDS011;75582;47.444;21.396;2024-02-21T01:52:26;24.15;;;13.73;;
85204;SDS011;75582;47.444;21.396;2024-02-21T01:53:52;25.02;;;13.93;;
85204;SDS011;75582;47.444;21.396;2024-02-21T01:55:19;30.30;;;14.20;;
85204;SDS011;75582;47.444;21.396;2024-02-21T01:56:46;27.23;;;14.57;;
85204;SDS011;75582;47.444;21.396;2024-02-21T01:58:15;25.35;;;14.10;;
85204;SDS011;75582;47.444;21.396;2024-02-21T01:59:41;26.63;;;14.73;;
85204;SDS011;75582;47.444;21.396;2024-02-21T02:01:07;25.07;;;13.67;;
85204;SDS011;75582;47.444;21.396;2024-02-21T02:02:33;30.15;;;14.10;;
85204;SDS011;75582;47.444;21.396;2024-02-21T02:03:59;25.20;;;13.77;;
85204;SDS011;75582;47.444;21.396;2024-02-21T02:05:25;27.00;;;14.00;;
85204;SDS011;75582;47.444;21.396;2024-02-21T02:06:51;24.83;;;13.90;;
85204;SDS011;75582;47.444;21.396;2024-02-21T02:08:17;25.15;;;14.32;;
85204;SDS011;75582;47.444;21.396;2024-02-21T02:09:44;24.52;;;14.13;;
85204;SDS011;75582;47.444;21.396;2024-02-21T02:11:10;24.35;;;13.73;;
85204;SDS011;75582;47.444;21.396;2024-02-21T02:12:36;25.73;;;14.23;;
85204;SDS011;75582;47.444;21.396;2024-02-21T02:14:09;25.98;;;12.82;;
85204;SDS011;75582;47.444;21.396;2024-02-21T02:15:45;25.30;;;13.03;;
85204;SDS011;75582;47.444;21.396;2024-02-21T02:17:10;27.42;;;13.38;;
85204;SDS011;75582;47.444;21.396;2024-02-21T02:18:37;24.83;;;13.63;;
85204;SDS011;75582;47.444;21.396;2024-02-21T02:20:03;22.50;;;13.35;;
85204;SDS011;75582;47.444;21.396;2024-02-21T02:21:31;23.48;;;13.38;;
85204;SDS011;75582;47.444;21.396;2024-02-21T02:23:01;26.75;;;13.18;;
85204;SDS011;75582;47.444;21.396;2024-02-21T02:24:38;25.45;;;13.70;;
85204;SDS011;75582;47.444;21.396;2024-02-21T02:26:03;22.30;;;13.48;;
85204;SDS011;75582;47.444;21.396;2024-02-21T02:27:32;21.85;;;12.60;;
85204;SDS011;75582;47.444;21.396;2024-02-21T02:28:58;24.05;;;12.63;;
85204;SDS011;75582;47.444;21.396;2024-02-21T02:30:24;24.17;;;13.47;;
85204;SDS011;75582;47.444;21.396;2024-02-21T02:31:50;25.55;;;13.75;;
85204;SDS011;75582;47.444;21.396;2024-02-21T02:33:16;23.38;;;13.05;;
85204;SDS011;75582;47.444;21.396;2024-02-21T02:34:45;27.17;;;13.80;;
85204;SDS011;75582;47.444;21.396;2024-02-21T02:36:12;23.27;;;13.45;;
85204;SDS011;75582;47.444;21.396;2024-02-21T02:37:38;22.35;;;12.48;;
85204;SDS011;75582;47.444;21.396;2024-02-21T02:39:03;23.15;;;12.85;;
85204;SDS011;75582;47.444;21.396;2024-02-21T02:40:30;24.17;;;13.43;;
85204;SDS011;75582;47.444;21.396;2024-02-21T02:41:56;22.23;;;13.63;;
85204;SDS011;75582;47.444;21.396;2024-02-21T02:43:23;23.02;;;12.68;;
85204;SDS011;75582;47.444;21.396;2024-02-21T02:44:49;24.73;;;12.70;;
85204;SDS011;75582;47.444;21.396;2024-02-21T02:46:15;23.27;;;12.40;;
85204;SDS011;75582;47.444;21.396;2024-02-21T02:47:41;26.20;;;12.40;;
85204;SDS011;75582;47.444;21.396;2024-02-21T02:49:06;25.05;;;13.45;;
85204;SDS011;75582;47.444;21.396;2024-02-21T02:50:33;25.60;;;12.30;;
85204;SDS011;75582;47.444;21.396;2024-02-21T02:51:59;21.77;;;11.95;;
85204;SDS011;75582;47.444;21.396;2024-02-21T02:53:25;22.45;;;12.70;;
85204;SDS011;75582;47.444;21.396;2024-02-21T02:54:51;22.50;;;13.13;;
85204;SDS011;75582;47.444;21.396;2024-02-21T02:56:18;21.15;;;12.85;;
85204;SDS011;75582;47.444;21.396;2024-02-21T02:57:44;25.13;;;12.88;;
85204;SDS011;75582;47.444;21.396;2024-02-21T02:59:10;20.53;;;11.63;;
85204;SDS011;75582;47.444;21.396;2024-02-21T03:00:36;22.38;;;12.25;;
85204;SDS011;75582;47.444;21.396;2024-02-21T03:02:01;22.10;;;12.30;;
85204;SDS011;75582;47.444;21.396;2024-02-21T03:03:27;21.83;;;13.52;;
85204;SDS011;75582;47.444;21.396;2024-02-21T03:04:53;21.77;;;12.27;;
85204;SDS011;75582;47.444;21.396;2024-02-21T03:06:19;20.73;;;12.05;;
85204;SDS011;75582;47.444;21.396;2024-02-21T03:07:45;19.27;;;11.10;;
85204;SDS011;75582;47.444;21.396;2024-02-21T03:09:11;20.85;;;11.80;;
85204;SDS011;75582;47.444;21.396;2024-02-21T03:10:37;20.95;;;11.82;;
85204;SDS011;75582;47.444;21.396;2024-02-21T03:12:10;21.35;;;11.77;;
85204;SDS011;75582;47.444;21.396;2024-02-21T03:13:36;19.80;;;11.57;;
85204;SDS011;75582;47.444;21.396;2024-02-21T03:15:02;20.30;;;11.13;;
85204;SDS011;75582;47.444;21.396;2024-02-21T03:16:29;22.75;;;12.15;;
85204;SDS011;75582;47.444;21.396;2024-02-21T03:17:55;22.70;;;12.63;;
85204;SDS011;75582;47.444;21.396;2024-02-21T03:19:21;19.13;;;10.32;;
85204;SDS011;75582;47.444;21.396;2024-02-21T03:20:47;17.77;;;10.32;;
85204;SDS011;75582;47.444;21.396;2024-02-21T03:22:14;19.02;;;10.27;;
85204;SDS011;75582;47.444;21.396;2024-02-21T03:23:41;22.00;;;10.95;;
85204;SDS011;75582;47.444;21.396;2024-02-21T03:25:07;19.40;;;11.15;;
85204;SDS011;75582;47.444;21.396;2024-02-21T03:26:34;18.15;;;10.23;;
85204;SDS011;75582;47.444;21.396;2024-02-21T03:28:00;18.27;;;10.57;;
85204;SDS011;75582;47.444;21.396;2024-02-21T03:29:27;18.45;;;10.80;;
85204;SDS011;75582;47.444;21.396;2024-02-21T03:30:52;18.63;;;10.02;;
85204;SDS011;75582;47.444;21.396;2024-02-21T03:32:19;18.80;;;11.02;;
85204;SDS011;75582;47.444;21.396;2024-02-21T03:33:45;18.55;;;11.23;;
85204;SDS011;75582;47.444;21.396;2024-02-21T03:35:11;18.92;;;10.18;;
85204;SDS011;75582;47.444;21.396;2024-02-21T03:36:37;19.63;;;11.07;;
85204;SDS011;75582;47.444;21.396;2024-02-21T03:38:03;18.73;;;10.73;;
85204;SDS011;75582;47.444;21.396;2024-02-21T03:39:32;17.05;;;9.90;;
85204;SDS011;75582;47.444;21.396;2024-02-21T03:40:58;18.33;;;10.68;;
85204;SDS011;75582;47.444;21.396;2024-02-21T03:42:24;18.03;;;10.73;;
85204;SDS011;75582;47.444;21.396;2024-02-21T03:43:50;17.25;;;9.73;;
85204;SDS011;75582;47.444;21.396;2024-02-21T03:45:16;17.58;;;9.35;;
85204;SDS011;75582;47.444;21.396;2024-02-21T03:46:42;17.65;;;9.88;;
85204;SDS011;75582;47.444;21.396;2024-02-21T03:48:08;17.52;;;9.68;;
85204;SDS011;75582;47.444;21.396;2024-02-21T03:49:34;16.98;;;9.35;;
85204;SDS011;75582;47.444;21.396;2024-02-21T03:51:00;14.43;;;8.48;;
85204;SDS011;75582;47.444;21.396;2024-02-21T03:52:26;14.65;;;8.38;;
85204;SDS011;75582;47.444;21.396;2024-02-21T03:53:52;11.73;;;8.02;;
85204;SDS011;75582;47.444;21.396;2024-02-21T03:55:18;14.10;;;8.57;;
85204;SDS011;75582;47.444;21.396;2024-02-21T03:56:44;14.77;;;8.67;;
85204;SDS011;75582;47.444;21.396;2024-02-21T03:58:09;13.45;;;7.70;;
85204;SDS011;75582;47.444;21.396;2024-02-21T03:59:36;12.50;;;7.63;;
85204;SDS011;75582;47.444;21.396;2024-02-21T04:01:05;14.35;;;9.10;;
85204;SDS011;75582;47.444;21.396;2024-02-21T04:02:31;14.13;;;8.48;;
85204;SDS011;75582;47.444;21.396;2024-02-21T04:03:57;20.58;;;8.60;;
85204;SDS011;75582;47.444;21.396;2024-02-21T04:05:23;18.17;;;8.73;;
85204;SDS011;75582;47.444;21.396;2024-02-21T04:06:49;15.55;;;8.80;;
85204;SDS011;75582;47.444;21.396;2024-02-21T04:08:15;14.55;;;8.25;;
85204;SDS011;75582;47.444;21.396;2024-02-21T04:09:42;14.90;;;8.80;;
85204;SDS011;75582;47.444;21.396;2024-02-21T04:11:08;14.13;;;8.90;;
85204;SDS011;75582;47.444;21.396;2024-02-21T04:12:34;14.10;;;9.18;;
85204;SDS011;75582;47.444;21.396;2024-02-21T04:14:06;13.05;;;7.90;;
85204;SDS011;75582;47.444;21.396;2024-02-21T04:15:32;12.60;;;8.18;;
85204;SDS011;75582;47.444;21.396;2024-02-21T04:16:59;15.73;;;9.10;;
85204;SDS011;75582;47.444;21.396;2024-02-21T04:18:25;13.70;;;8.30;;
85204;SDS011;75582;47.444;21.396;2024-02-21T04:19:52;14.02;;;9.30;;
85204;SDS011;75582;47.444;21.396;2024-02-21T04:21:27;14.05;;;8.65;;
85204;SDS011;75582;47.444;21.396;2024-02-21T04:22:54;15.88;;;8.40;;
85204;SDS011;75582;47.444;21.396;2024-02-21T04:24:20;14.25;;;8.70;;
85204;SDS011;75582;47.444;21.396;2024-02-21T04:25:46;14.33;;;8.07;;
85204;SDS011;75582;47.444;21.396;2024-02-21T04:27:12;12.13;;;7.03;;
85204;SDS011;75582;47.444;21.396;2024-02-21T04:28:38;14.13;;;7.35;;
85204;SDS011;75582;47.444;21.396;2024-02-21T04:30:04;15.50;;;7.75;;
85204;SDS011;75582;47.444;21.396;2024-02-21T04:31:32;12.48;;;7.80;;
85204;SDS011;75582;47.444;21.396;2024-02-21T04:32:58;12.57;;;8.05;;
85204;SDS011;75582;47.444;21.396;2024-02-21T04:34:24;13.55;;;7.63;;
85204;SDS011;75582;47.444;21.396;2024-02-21T04:35:50;12.55;;;7.95;;
85204;SDS011;75582;47.444;21.396;2024-02-21T04:37:16;12.27;;;7.43;;
85204;SDS011;75582;47.444;21.396;2024-02-21T04:38:42;15.10;;;7.57;;
85204;SDS011;75582;47.444;21.396;2024-02-21T04:40:08;16.53;;;8.60;;
85204;SDS011;75582;47.444;21.396;2024-02-21T04:41:35;13.23;;;8.20;;
85204;SDS011;75582;47.444;21.396;2024-02-21T04:43:00;13.93;;;8.15;;
85204;SDS011;75582;47.444;21.396;2024-02-21T04:44:27;17.40;;;10.18;;
85204;SDS011;75582;47.444;21.396;2024-02-21T04:45:52;19.55;;;10.38;;
85204;SDS011;75582;47.444;21.396;2024-02-21T04:47:18;17.88;;;10.55;;
85204;SDS011;75582;47.444;21.396;2024-02-21T04:48:44;25.27;;;11.75;;
85204;SDS011;75582;47.444;21.396;2024-02-21T04:50:11;32.10;;;12.68;;
85204;SDS011;75582;47.444;21.396;2024-02-21T04:51:36;22.63;;;11.43;;
85204;SDS011;75582;47.444;21.396;2024-02-21T04:53:03;20.70;;;11.45;;
85204;SDS011;75582;47.444;21.396;2024-02-21T04:54:29;17.03;;;10.10;;
85204;SDS011;75582;47.444;21.396;2024-02-21T04:55:55;23.02;;;9.75;;
85204;SDS011;75582;47.444;21.396;2024-02-21T04:57:21;18.60;;;10.38;;
85204;SDS011;75582;47.444;21.396;2024-02-21T04:58:47;20.20;;;11.00;;
85204;SDS011;75582;47.444;21.396;2024-02-21T05:00:13;20.25;;;10.73;;
85204;SDS011;75582;47.444;21.396;2024-02-21T05:01:39;21.27;;;10.45;;
85204;SDS011;75582;47.444;21.396;2024-02-21T05:03:05;18.52;;;10.93;;
85204;SDS011;75582;47.444;21.396;2024-02-21T05:04:31;21.25;;;11.95;;
85204;SDS011;75582;47.444;21.396;2024-02-21T05:05:57;21.73;;;11.70;;
85204;SDS011;75582;47.444;21.396;2024-02-21T05:07:23;22.48;;;11.82;;
85204;SDS011;75582;47.444;21.396;2024-02-21T05:08:49;24.30;;;11.73;;
85204;SDS011;75582;47.444;21.396;2024-02-21T05:10:15;24.27;;;12.25;;
85204;SDS011;75582;47.444;21.396;2024-02-21T05:11:43;26.02;;;12.23;;
85204;SDS011;75582;47.444;21.396;2024-02-21T05:13:16;23.50;;;12.52;;
85204;SDS011;75582;47.444;21.396;2024-02-21T05:14:42;26.55;;;12.32;;
85204;SDS011;75582;47.444;21.396;2024-02-21T05:16:08;21.67;;;10.48;;
85204;SDS011;75582;47.444;21.396;2024-02-21T05:17:33;23.30;;;12.27;;
85204;SDS011;75582;47.444;21.396;2024-02-21T05:18:58;31.50;;;14.15;;
85204;SDS011;75582;47.444;21.396;2024-02-21T05:20:25;24.00;;;11.88;;
85204;SDS011;75582;47.444;21.396;2024-02-21T05:21:51;21.95;;;11.23;;
85204;SDS011;75582;47.444;21.396;2024-02-21T05:23:17;26.90;;;14.30;;
85204;SDS011;75582;47.444;21.396;2024-02-21T05:24:43;30.23;;;14.45;;
85204;SDS011;75582;47.444;21.396;2024-02-21T05:26:09;27.38;;;13.63;;
85204;SDS011;75582;47.444;21.396;2024-02-21T05:27:35;19.98;;;10.80;;
85204;SDS011;75582;47.444;21.396;2024-02-21T05:29:01;30.55;;;15.30;;
85204;SDS011;75582;47.444;21.396;2024-02-21T05:30:28;29.52;;;14.68;;
85204;SDS011;75582;47.444;21.396;2024-02-21T05:31:55;26.98;;;13.85;;
85204;SDS011;75582;47.444;21.396;2024-02-21T05:33:22;26.98;;;14.40;;
85204;SDS011;75582;47.444;21.396;2024-02-21T05:34:49;29.02;;;15.32;;
85204;SDS011;75582;47.444;21.396;2024-02-21T05:36:16;30.52;;;15.35;;
85204;SDS011;75582;47.444;21.396;2024-02-21T05:37:41;27.70;;;15.00;;
85204;SDS011;75582;47.444;21.396;2024-02-21T05:39:08;27.25;;;14.27;;
85204;SDS011;75582;47.444;21.396;2024-02-21T05:40:34;28.38;;;15.23;;
85204;SDS011;75582;47.444;21.396;2024-02-21T05:42:00;26.90;;;14.95;;
85204;SDS011;75582;47.444;21.396;2024-02-21T05:43:26;32.17;;;15.40;;
85204;SDS011;75582;47.444;21.396;2024-02-21T05:44:52;33.28;;;16.08;;
85204;SDS011;75582;47.444;21.396;2024-02-21T05:46:21;34.72;;;16.60;;
85204;SDS011;75582;47.444;21.396;2024-02-21T05:47:47;32.60;;;15.65;;
85204;SDS011;75582;47.444;21.396;2024-02-21T05:49:13;30.90;;;15.88;;
85204;SDS011;75582;47.444;21.396;2024-02-21T05:50:39;35.38;;;17.10;;
85204;SDS011;75582;47.444;21.396;2024-02-21T05:52:06;31.73;;;16.13;;
85204;SDS011;75582;47.444;21.396;2024-02-21T05:53:32;32.55;;;17.50;;
85204;SDS011;75582;47.444;21.396;2024-02-21T05:54:58;36.60;;;18.25;;
85204;SDS011;75582;47.444;21.396;2024-02-21T05:56:24;33.80;;;17.95;;
85204;SDS011;75582;47.444;21.396;2024-02-21T05:57:52;37.72;;;18.17;;
85204;SDS011;75582;47.444;21.396;2024-02-21T05:59:18;37.13;;;17.23;;
85204;SDS011;75582;47.444;21.396;2024-02-21T06:00:44;34.25;;;17.70;;
85204;SDS011;75582;47.444;21.396;2024-02-21T06:02:10;37.65;;;19.10;;
85204;SDS011;75582;47.444;21.396;2024-02-21T06:03:36;35.70;;;17.73;;
85204;SDS011;75582;47.444;21.396;2024-02-21T06:05:02;32.85;;;16.63;;
85204;SDS011;75582;47.444;21.396;2024-02-21T06:06:27;36.13;;;18.87;;
85204;SDS011;75582;47.444;21.396;2024-02-21T06:07:54;37.17;;;17.45;;
85204;SDS011;75582;47.444;21.396;2024-02-21T06:09:20;37.03;;;17.48;;
85204;SDS011;75582;47.444;21.396;2024-02-21T06:10:46;33.20;;;16.58;;
85204;SDS011;75582;47.444;21.396;2024-02-21T06:12:14;36.33;;;18.48;;
85204;SDS011;75582;47.444;21.396;2024-02-21T06:13:46;37.17;;;18.52;;
85204;SDS011;75582;47.444;21.396;2024-02-21T06:15:13;39.97;;;19.42;;
85204;SDS011;75582;47.444;21.396;2024-02-21T06:16:39;34.03;;;17.83;;
85204;SDS011;75582;47.444;21.396;2024-02-21T06:18:05;37.90;;;18.67;;
85204;SDS011;75582;47.444;21.396;2024-02-21T06:19:31;39.47;;;18.63;;
85204;SDS011;75582;47.444;21.396;2024-02-21T06:20:57;38.80;;;19.40;;
85204;SDS011;75582;47.444;21.396;2024-02-21T06:22:23;34.03;;;17.63;;
85204;SDS011;75582;47.444;21.396;2024-02-21T06:23:49;36.03;;;18.48;;
85204;SDS011;75582;47.444;21.396;2024-02-21T06:25:15;38.47;;;19.52;;
85204;SDS011;75582;47.444;21.396;2024-02-21T06:26:40;41.92;;;19.98;;
85204;SDS011;75582;47.444;21.396;2024-02-21T06:28:07;39.58;;;18.88;;
85204;SDS011;75582;47.444;21.396;2024-02-21T06:29:33;38.15;;;20.42;;
85204;SDS011;75582;47.444;21.396;2024-02-21T06:30:59;38.22;;;20.42;;
85204;SDS011;75582;47.444;21.396;2024-02-21T06:34:50;34.13;;;17.05;;
85204;SDS011;75582;47.444;21.396;2024-02-21T06:36:15;36.93;;;18.83;;
85204;SDS011;75582;47.444;21.396;2024-02-21T06:37:42;32.85;;;17.50;;
85204;SDS011;75582;47.444;21.396;2024-02-21T06:39:08;33.30;;;16.80;;
85204;SDS011;75582;47.444;21.396;2024-02-21T06:40:34;41.38;;;20.63;;
85204;SDS011;75582;47.444;21.396;2024-02-21T06:42:03;36.95;;;19.02;;
85204;SDS011;75582;47.444;21.396;2024-02-21T06:43:30;41.53;;;20.48;;
85204;SDS011;75582;47.444;21.396;2024-02-21T06:44:56;40.80;;;21.42;;
85204;SDS011;75582;47.444;21.396;2024-02-21T06:46:25;35.22;;;16.75;;
85204;SDS011;75582;47.444;21.396;2024-02-21T06:47:52;42.97;;;21.80;;
85204;SDS011;75582;47.444;21.396;2024-02-21T06:49:18;36.95;;;18.60;;
85204;SDS011;75582;47.444;21.396;2024-02-21T06:50:44;24.70;;;13.47;;
85204;SDS011;75582;47.444;21.396;2024-02-21T06:52:10;34.65;;;17.33;;
85204;SDS011;75582;47.444;21.396;2024-02-21T06:53:36;45.08;;;21.48;;
85204;SDS011;75582;47.444;21.396;2024-02-21T06:55:02;37.85;;;20.65;;
85204;SDS011;75582;47.444;21.396;2024-02-21T06:56:28;37.38;;;19.58;;
85204;SDS011;75582;47.444;21.396;2024-02-21T06:57:53;42.88;;;20.83;;
85204;SDS011;75582;47.444;21.396;2024-02-21T06:59:20;36.38;;;20.10;;
85204;SDS011;75582;47.444;21.396;2024-02-21T07:00:46;39.38;;;20.13;;
85204;SDS011;75582;47.444;21.396;2024-02-21T07:02:12;43.92;;;20.55;;
85204;SDS011;75582;47.444;21.396;2024-02-21T07:03:38;41.20;;;22.02;;
85204;SDS011;75582;47.444;21.396;2024-02-21T07:05:04;41.87;;;21.50;;
85204;SDS011;75582;47.444;21.396;2024-02-21T07:06:31;39.10;;;20.98;;
85204;SDS011;75582;47.444;21.396;2024-02-21T07:07:57;38.08;;;21.02;;
85204;SDS011;75582;47.444;21.396;2024-02-21T07:09:23;38.47;;;20.40;;
85204;SDS011;75582;47.444;21.396;2024-02-21T07:10:49;39.03;;;20.70;;
85204;SDS011;75582;47.444;21.396;2024-02-21T07:12:15;39.22;;;21.02;;
85204;SDS011;75582;47.444;21.396;2024-02-21T07:13:48;44.00;;;22.23;;
85204;SDS011;75582;47.444;21.396;2024-02-21T07:15:14;42.88;;;22.83;;
85204;SDS011;75582;47.444;21.396;2024-02-21T07:16:40;40.78;;;20.90;;
85204;SDS011;75582;47.444;21.396;2024-02-21T07:18:06;38.10;;;20.98;;
85204;SDS011;75582;47.444;21.396;2024-02-21T07:19:33;44.20;;;23.30;;
85204;SDS011;75582;47.444;21.396;2024-02-21T07:21:00;42.53;;;21.25;;
85204;SDS011;75582;47.444;21.396;2024-02-21T07:22:27;39.00;;;22.02;;
85204;SDS011;75582;47.444;21.396;2024-02-21T07:23:53;40.33;;;22.25;;
85204;SDS011;75582;47.444;21.396;2024-02-21T07:25:19;38.17;;;21.50;;
85204;SDS011;75582;47.444;21.396;2024-02-21T07:26:45;39.60;;;21.33;;
85204;SDS011;75582;47.444;21.396;2024-02-21T07:28:11;42.03;;;23.35;;
85204;SDS011;75582;47.444;21.396;2024-02-21T07:29:37;41.60;;;22.02;;
85204;SDS011;75582;47.444;21.396;2024-02-21T07:31:03;40.00;;;22.70;;
85204;SDS011;75582;47.444;21.396;2024-02-21T07:32:29;43.33;;;20.85;;
85204;SDS011;75582;47.444;21.396;2024-02-21T07:33:54;39.10;;;20.57;;
85204;SDS011;75582;47.444;21.396;2024-02-21T07:35:21;40.50;;;21.75;;
85204;SDS011;75582;47.444;21.396;2024-02-21T07:36:47;37.10;;;20.30;;
85204;SDS011;75582;47.444;21.396;2024-02-21T07:38:13;42.40;;;22.13;;
85204;SDS011;75582;47.444;21.396;2024-02-21T07:39:40;42.97;;;21.73;;
85204;SDS011;75582;47.444;21.396;2024-02-21T07:41:07;36.13;;;20.27;;
85204;SDS011;75582;47.444;21.396;2024-02-21T07:42:36;37.97;;;20.77;;
85204;SDS011;75582;47.444;21.396;2024-02-21T07:44:02;39.67;;;22.02;;
85204;SDS011;75582;47.444;21.396;2024-02-21T07:45:29;42.92;;;22.08;;
85204;SDS011;75582;47.444;21.396;2024-02-21T07:46:55;37.15;;;20.05;;
85204;SDS011;75582;47.444;21.396;2024-02-21T07:48:21;36.77;;;20.93;;
85204;SDS011;75582;47.444;21.396;2024-02-21T07:49:50;37.70;;;20.85;;
85204;SDS011;75582;47.444;21.396;2024-02-21T07:51:16;49.10;;;22.45;;
85204;SDS011;75582;47.444;21.396;2024-02-21T07:52:43;34.75;;;21.63;;
85204;SDS011;75582;47.444;21.396;2024-02-21T07:54:09;35.08;;;20.45;;
85204;SDS011;75582;47.444;21.396;2024-02-21T07:55:35;39.17;;;20.70;;
85204;SDS011;75582;47.444;21.396;2024-02-21T07:57:01;38.63;;;21.02;;
85204;SDS011;75582;47.444;21.396;2024-02-21T07:58:27;38.70;;;20.77;;
85204;SDS011;75582;47.444;21.396;2024-02-21T07:59:54;35.65;;;18.75;;
85204;SDS011;75582;47.444;21.396;2024-02-21T08:01:20;38.15;;;20.00;;
85204;SDS011;75582;47.444;21.396;2024-02-21T08:02:46;38.27;;;20.40;;
85204;SDS011;75582;47.444;21.396;2024-02-21T08:04:11;39.83;;;19.85;;
85204;SDS011;75582;47.444;21.396;2024-02-21T08:05:38;41.20;;;21.17;;
85204;SDS011;75582;47.444;21.396;2024-02-21T08:07:04;34.38;;;19.48;;
85204;SDS011;75582;47.444;21.396;2024-02-21T08:08:30;39.70;;;20.58;;
85204;SDS011;75582;47.444;21.396;2024-02-21T08:09:56;42.30;;;21.08;;
85204;SDS011;75582;47.444;21.396;2024-02-21T08:11:25;37.35;;;20.80;;
85204;SDS011;75582;47.444;21.396;2024-02-21T08:12:51;39.92;;;20.27;;
85204;SDS011;75582;47.444;21.396;2024-02-21T08:14:24;35.53;;;19.88;;
85204;SDS011;75582;47.444;21.396;2024-02-21T08:15:53;38.08;;;20.80;;
85204;SDS011;75582;47.444;21.396;2024-02-21T08:17:19;39.10;;;19.77;;
85204;SDS011;75582;47.444;21.396;2024-02-21T08:18:45;35.72;;;18.95;;
85204;SDS011;75582;47.444;21.396;2024-02-21T08:20:11;39.65;;;21.17;;
85204;SDS011;75582;47.444;21.396;2024-02-21T08:21:37;41.00;;;22.90;;
85204;SDS011;75582;47.444;21.396;2024-02-21T08:23:03;39.90;;;21.48;;